sensor_id;sensor_type;location;lat;lon;timestamp;P1;durP1;ratioP1;P2;durP2;ratioP2
39924;SDS011;25592;49.986;11.618;2023-02-10T00:00:16;25.10;;;11.52;;
39924;SDS011;25592;49.986;11.618;2023-02-10T00:03:02;26.10;;;11.52;;
39924;SDS011;25592;49.986;11.618;2023-02-10T00:05:47;28.17;;;11.98;;
39924;SDS011;25592;49.986;11.618;2023-02-10T00:08:33;28.73;;;12.23;;
39924;SDS011;25592;49.986;11.618;2023-02-10T00:11:19;24.90;;;11.38;;
39924;SDS011;25592;49.986;11.618;2023-02-10T00:14:25;28.00;;;12.40;;
39924;SDS011;25592;49.986;11.618;2023-02-10T00:17:12;24.35;;;11.90;;
39924;SDS011;25592;49.986;11.618;2023-02-10T00:19:59;25.90;;;12.18;;
39924;SDS011;25592;49.986;11.618;2023-02-10T00:22:45;29.45;;;12.13;;
39924;SDS011;25592;49.986;11.618;2023-02-10T00:25:31;23.90;;;11.98;;
39924;SDS011;25592;49.986;11.618;2023-02-10T00:28:17;22.63;;;10.88;;
39924;SDS011;25592;49.986;11.618;2023-02-10T00:31:06;27.48;;;11.30;;
39924;SDS011;25592;49.986;11.618;2023-02-10T00:33:52;26.08;;;12.10;;
39924;SDS011;25592;49.986;11.618;2023-02-10T00:36:38;25.73;;;12.00;;
39924;SDS011;25592;49.986;11.618;2023-02-10T00:39:24;27.23;;;12.50;;
39924;SDS011;25592;49.986;11.618;2023-02-10T00:42:09;28.92;;;12.25;;
39924;SDS011;25592;49.986;11.618;2023-02-10T00:44:54;31.67;;;13.18;;
39924;SDS011;25592;49.986;11.618;2023-02-10T00:47:40;25.83;;;11.68;;
39924;SDS011;25592;49.986;11.618;2023-02-10T00:50:25;24.02;;;11.63;;
39924;SDS011;25592;49.986;11.618;2023-02-10T00:53:10;27.25;;;11.95;;
39924;SDS011;25592;49.986;11.618;2023-02-10T00:55:56;27.05;;;12.07;;
39924;SDS011;25592;49.986;11.618;2023-02-10T00:58:41;26.35;;;13.00;;
39924;SDS011;25592;49.986;11.618;2023-02-10T01:01:27;27.63;;;13.40;;
39924;SDS011;25592;49.986;11.618;2023-02-10T01:04:12;35.75;;;13.23;;
39924;SDS011;25592;49.986;11.618;2023-02-10T01:06:58;30.02;;;13.45;;
39924;SDS011;25592;49.986;11.618;2023-02-10T01:09:43;28.48;;;12.35;;
39924;SDS011;25592;49.986;11.618;2023-02-10T01:12:29;27.52;;;11.77;;
39924;SDS011;25592;49.986;11.618;2023-02-10T01:15:14;28.65;;;12.30;;
39924;SDS011;25592;49.986;11.618;2023-02-10T01:18:00;32.47;;;13.15;;
39924;SDS011;25592;49.986;11.618;2023-02-10T01:20:45;28.80;;;12.30;;
39924;SDS011;25592;49.986;11.618;2023-02-10T01:23:30;25.65;;;11.65;;
39924;SDS011;25592;49.986;11.618;2023-02-10T01:26:16;26.80;;;12.23;;
39924;SDS011;25592;49.986;11.618;2023-02-10T01:29:01;28.17;;;11.32;;
39924;SDS011;25592;49.986;11.618;2023-02-10T01:31:48;32.20;;;12.57;;
39924;SDS011;25592;49.986;11.618;2023-02-10T01:34:35;28.58;;;12.60;;
39924;SDS011;25592;49.986;11.618;2023-02-10T01:37:21;25.90;;;11.32;;
39924;SDS011;25592;49.986;11.618;2023-02-10T01:40:07;24.67;;;11.90;;
39924;SDS011;25592;49.986;11.618;2023-02-10T01:42:53;24.73;;;11.25;;
39924;SDS011;25592;49.986;11.618;2023-02-10T01:45:38;25.08;;;12.55;;
39924;SDS011;25592;49.986;11.618;2023-02-10T01:48:24;28.52;;;12.38;;
39924;SDS011;25592;49.986;11.618;2023-02-10T01:51:10;31.80;;;12.52;;
39924;SDS011;25592;49.986;11.618;2023-02-10T01:53:56;30.60;;;12.55;;
39924;SDS011;25592;49.986;11.618;2023-02-10T01:56:41;28.13;;;11.38;;
39924;SDS011;25592;49.986;11.618;2023-02-10T01:59:27;28.63;;;11.05;;
39924;SDS011;25592;49.986;11.618;2023-02-10T02:02:16;28.05;;;12.82;;
39924;SDS011;25592;49.986;11.618;2023-02-10T02:05:04;25.70;;;10.95;;
39924;SDS011;25592;49.986;11.618;2023-02-10T02:07:51;23.05;;;10.98;;
39924;SDS011;25592;49.986;11.618;2023-02-10T02:10:39;29.75;;;11.63;;
39924;SDS011;25592;49.986;11.618;2023-02-10T02:13:53;25.27;;;12.43;;
39924;SDS011;25592;49.986;11.618;2023-02-10T02:33:31;27.08;;;12.50;;
39924;SDS011;25592;49.986;11.618;2023-02-10T02:36:00;26.35;;;11.05;;
39924;SDS011;25592;49.986;11.618;2023-02-10T02:38:47;26.98;;;11.93;;
39924;SDS011;25592;49.986;11.618;2023-02-10T02:41:33;30.23;;;11.85;;
39924;SDS011;25592;49.986;11.618;2023-02-10T02:44:19;26.50;;;11.45;;
39924;SDS011;25592;49.986;11.618;2023-02-10T02:47:11;24.98;;;12.75;;
39924;SDS011;25592;49.986;11.618;2023-02-10T02:53:37;24.17;;;11.13;;
39924;SDS011;25592;49.986;11.618;2023-02-10T03:01:57;31.55;;;12.75;;
39924;SDS011;25592;49.986;11.618;2023-02-10T03:04:46;27.02;;;12.48;;
39924;SDS011;25592;49.986;11.618;2023-02-10T03:07:32;28.55;;;13.07;;
39924;SDS011;25592;49.986;11.618;2023-02-10T03:10:17;31.80;;;13.60;;
39924;SDS011;25592;49.986;11.618;2023-02-10T03:13:03;30.55;;;12.25;;
39924;SDS011;25592;49.986;11.618;2023-02-10T03:15:48;29.73;;;12.27;;
39924;SDS011;25592;49.986;11.618;2023-02-10T03:18:34;27.13;;;12.20;;
39924;SDS011;25592;49.986;11.618;2023-02-10T03:21:20;30.38;;;13.15;;
39924;SDS011;25592;49.986;11.618;2023-02-10T03:24:05;29.63;;;13.43;;
39924;SDS011;25592;49.986;11.618;2023-02-10T03:26:51;25.55;;;11.90;;
39924;SDS011;25592;49.986;11.618;2023-02-10T03:29:36;28.20;;;12.48;;
39924;SDS011;25592;49.986;11.618;2023-02-10T03:32:22;31.75;;;12.90;;
39924;SDS011;25592;49.986;11.618;2023-02-10T03:35:07;27.75;;;11.52;;
39924;SDS011;25592;49.986;11.618;2023-02-10T03:37:53;31.60;;;12.75;;
39924;SDS011;25592;49.986;11.618;2023-02-10T03:40:38;23.85;;;11.07;;
39924;SDS011;25592;49.986;11.618;2023-02-10T03:43:23;31.02;;;12.07;;
39924;SDS011;25592;49.986;11.618;2023-02-10T03:46:09;32.10;;;13.43;;
39924;SDS011;25592;49.986;11.618;2023-02-10T03:48:55;25.70;;;11.80;;
39924;SDS011;25592;49.986;11.618;2023-02-10T03:51:41;28.98;;;14.32;;
39924;SDS011;25592;49.986;11.618;2023-02-10T03:54:27;23.23;;;11.98;;
39924;SDS011;25592;49.986;11.618;2023-02-10T03:57:13;31.45;;;13.60;;
39924;SDS011;25592;49.986;11.618;2023-02-10T03:59:59;31.98;;;13.20;;
39924;SDS011;25592;49.986;11.618;2023-02-10T04:02:45;35.65;;;14.88;;
39924;SDS011;25592;49.986;11.618;2023-02-10T04:05:30;31.25;;;12.85;;
39924;SDS011;25592;49.986;11.618;2023-02-10T04:08:16;27.67;;;13.20;;
39924;SDS011;25592;49.986;11.618;2023-02-10T04:11:02;33.95;;;13.68;;
39924;SDS011;25592;49.986;11.618;2023-02-10T04:13:48;28.52;;;13.48;;
39924;SDS011;25592;49.986;11.618;2023-02-10T04:16:34;28.30;;;13.18;;
39924;SDS011;25592;49.986;11.618;2023-02-10T04:19:21;34.13;;;13.18;;
39924;SDS011;25592;49.986;11.618;2023-02-10T04:22:07;27.38;;;13.35;;
39924;SDS011;25592;49.986;11.618;2023-02-10T04:24:53;30.67;;;13.02;;
39924;SDS011;25592;49.986;11.618;2023-02-10T04:27:39;29.85;;;13.55;;
39924;SDS011;25592;49.986;11.618;2023-02-10T04:30:25;31.77;;;14.05;;
39924;SDS011;25592;49.986;11.618;2023-02-10T04:33:10;39.35;;;13.30;;
39924;SDS011;25592;49.986;11.618;2023-02-10T04:35:56;29.13;;;13.68;;
39924;SDS011;25592;49.986;11.618;2023-02-10T04:38:42;32.47;;;13.27;;
39924;SDS011;25592;49.986;11.618;2023-02-10T04:41:27;29.45;;;13.95;;
39924;SDS011;25592;49.986;11.618;2023-02-10T04:44:13;28.13;;;13.15;;
39924;SDS011;25592;49.986;11.618;2023-02-10T04:46:58;29.67;;;14.15;;
39924;SDS011;25592;49.986;11.618;2023-02-10T04:49:44;30.00;;;13.43;;
39924;SDS011;25592;49.986;11.618;2023-02-10T04:52:29;29.75;;;13.18;;
39924;SDS011;25592;49.986;11.618;2023-02-10T04:55:14;31.30;;;13.68;;
39924;SDS011;25592;49.986;11.618;2023-02-10T04:58:00;29.08;;;12.88;;
39924;SDS011;25592;49.986;11.618;2023-02-10T05:00:46;27.40;;;13.18;;
39924;SDS011;25592;49.986;11.618;2023-02-10T05:03:31;27.52;;;11.90;;
39924;SDS011;25592;49.986;11.618;2023-02-10T05:06:16;28.08;;;13.30;;
39924;SDS011;25592;49.986;11.618;2023-02-10T05:09:02;35.28;;;15.07;;
39924;SDS011;25592;49.986;11.618;2023-02-10T05:11:47;36.00;;;14.73;;
39924;SDS011;25592;49.986;11.618;2023-02-10T05:14:33;32.55;;;13.07;;
39924;SDS011;25592;49.986;11.618;2023-02-10T05:17:18;30.48;;;13.23;;
39924;SDS011;25592;49.986;11.618;2023-02-10T05:20:04;31.40;;;12.60;;
39924;SDS011;25592;49.986;11.618;2023-02-10T05:22:50;31.23;;;13.38;;
39924;SDS011;25592;49.986;11.618;2023-02-10T05:25:35;33.80;;;14.05;;
39924;SDS011;25592;49.986;11.618;2023-02-10T05:28:21;34.35;;;14.32;;
39924;SDS011;25592;49.986;11.618;2023-02-10T05:31:06;33.15;;;14.93;;
39924;SDS011;25592;49.986;11.618;2023-02-10T05:33:52;31.05;;;14.50;;
39924;SDS011;25592;49.986;11.618;2023-02-10T05:36:38;34.17;;;15.20;;
39924;SDS011;25592;49.986;11.618;2023-02-10T05:39:23;31.65;;;14.27;;
39924;SDS011;25592;49.986;11.618;2023-02-10T05:42:08;31.17;;;13.60;;
39924;SDS011;25592;49.986;11.618;2023-02-10T05:44:54;33.28;;;13.82;;
39924;SDS011;25592;49.986;11.618;2023-02-10T05:47:39;32.03;;;13.98;;
39924;SDS011;25592;49.986;11.618;2023-02-10T05:50:25;33.78;;;15.27;;
39924;SDS011;25592;49.986;11.618;2023-02-10T05:53:10;35.95;;;14.30;;
39924;SDS011;25592;49.986;11.618;2023-02-10T05:55:57;33.20;;;14.95;;
39924;SDS011;25592;49.986;11.618;2023-02-10T05:58:42;33.42;;;14.18;;
39924;SDS011;25592;49.986;11.618;2023-02-10T06:01:28;34.40;;;15.35;;
39924;SDS011;25592;49.986;11.618;2023-02-10T06:04:14;33.22;;;14.65;;
39924;SDS011;25592;49.986;11.618;2023-02-10T06:06:59;30.75;;;14.77;;
39924;SDS011;25592;49.986;11.618;2023-02-10T06:09:45;36.30;;;15.85;;
39924;SDS011;25592;49.986;11.618;2023-02-10T06:12:31;42.35;;;18.13;;
39924;SDS011;25592;49.986;11.618;2023-02-10T06:15:17;38.85;;;17.40;;
39924;SDS011;25592;49.986;11.618;2023-02-10T06:18:02;33.10;;;15.35;;
39924;SDS011;25592;49.986;11.618;2023-02-10T06:20:48;31.75;;;15.15;;
39924;SDS011;25592;49.986;11.618;2023-02-10T06:23:36;37.88;;;15.15;;
39924;SDS011;25592;49.986;11.618;2023-02-10T06:26:21;41.15;;;15.48;;
39924;SDS011;25592;49.986;11.618;2023-02-10T06:29:06;39.67;;;18.08;;
39924;SDS011;25592;49.986;11.618;2023-02-10T06:31:52;36.88;;;16.40;;
39924;SDS011;25592;49.986;11.618;2023-02-10T06:34:37;39.90;;;16.98;;
39924;SDS011;25592;49.986;11.618;2023-02-10T06:37:23;41.22;;;16.05;;
39924;SDS011;25592;49.986;11.618;2023-02-10T06:40:09;35.00;;;15.27;;
39924;SDS011;25592;49.986;11.618;2023-02-10T06:42:55;37.47;;;16.48;;
39924;SDS011;25592;49.986;11.618;2023-02-10T06:45:40;39.90;;;16.55;;
39924;SDS011;25592;49.986;11.618;2023-02-10T06:48:26;36.00;;;15.68;;
39924;SDS011;25592;49.986;11.618;2023-02-10T06:51:11;36.60;;;16.02;;
39924;SDS011;25592;49.986;11.618;2023-02-10T06:53:56;45.90;;;18.27;;
39924;SDS011;25592;49.986;11.618;2023-02-10T06:56:42;37.88;;;15.93;;
39924;SDS011;25592;49.986;11.618;2023-02-10T06:59:31;42.50;;;17.45;;
39924;SDS011;25592;49.986;11.618;2023-02-10T07:02:17;41.60;;;17.23;;
39924;SDS011;25592;49.986;11.618;2023-02-10T07:05:03;37.10;;;16.77;;
39924;SDS011;25592;49.986;11.618;2023-02-10T07:07:51;40.33;;;16.63;;
39924;SDS011;25592;49.986;11.618;2023-02-10T07:10:38;41.45;;;18.33;;
39924;SDS011;25592;49.986;11.618;2023-02-10T07:13:23;41.35;;;18.13;;
39924;SDS011;25592;49.986;11.618;2023-02-10T07:16:09;40.05;;;17.10;;
39924;SDS011;25592;49.986;11.618;2023-02-10T07:18:58;36.67;;;16.38;;
39924;SDS011;25592;49.986;11.618;2023-02-10T07:21:44;40.25;;;17.90;;
39924;SDS011;25592;49.986;11.618;2023-02-10T07:24:29;38.33;;;17.13;;
39924;SDS011;25592;49.986;11.618;2023-02-10T07:27:15;43.63;;;18.63;;
39924;SDS011;25592;49.986;11.618;2023-02-10T07:30:01;39.83;;;19.08;;
39924;SDS011;25592;49.986;11.618;2023-02-10T07:32:46;35.38;;;15.63;;
39924;SDS011;25592;49.986;11.618;2023-02-10T07:35:32;37.80;;;16.15;;
39924;SDS011;25592;49.986;11.618;2023-02-10T07:38:17;33.40;;;16.10;;
39924;SDS011;25592;49.986;11.618;2023-02-10T07:41:03;37.03;;;17.02;;
39924;SDS011;25592;49.986;11.618;2023-02-10T07:43:49;48.38;;;18.20;;
39924;SDS011;25592;49.986;11.618;2023-02-10T07:46:34;43.15;;;17.15;;
39924;SDS011;25592;49.986;11.618;2023-02-10T07:49:20;35.70;;;16.92;;
39924;SDS011;25592;49.986;11.618;2023-02-10T07:52:05;37.28;;;16.98;;
39924;SDS011;25592;49.986;11.618;2023-02-10T07:54:50;41.83;;;16.95;;
39924;SDS011;25592;49.986;11.618;2023-02-10T07:57:36;41.10;;;16.50;;
39924;SDS011;25592;49.986;11.618;2023-02-10T08:00:23;46.65;;;19.35;;
39924;SDS011;25592;49.986;11.618;2023-02-10T08:03:11;34.90;;;15.55;;
39924;SDS011;25592;49.986;11.618;2023-02-10T08:05:58;42.53;;;17.75;;
39924;SDS011;25592;49.986;11.618;2023-02-10T08:08:43;40.05;;;16.50;;
39924;SDS011;25592;49.986;11.618;2023-02-10T08:11:29;38.75;;;17.90;;
39924;SDS011;25592;49.986;11.618;2023-02-10T08:14:16;44.40;;;18.17;;
39924;SDS011;25592;49.986;11.618;2023-02-10T08:17:02;37.25;;;16.80;;
39924;SDS011;25592;49.986;11.618;2023-02-10T08:19:47;41.05;;;18.40;;
39924;SDS011;25592;49.986;11.618;2023-02-10T08:22:33;47.42;;;20.83;;
39924;SDS011;25592;49.986;11.618;2023-02-10T08:25:19;44.58;;;18.50;;
39924;SDS011;25592;49.986;11.618;2023-02-10T08:28:04;47.63;;;19.42;;
39924;SDS011;25592;49.986;11.618;2023-02-10T08:30:50;40.03;;;18.88;;
39924;SDS011;25592;49.986;11.618;2023-02-10T08:33:35;48.60;;;20.13;;
39924;SDS011;25592;49.986;11.618;2023-02-10T08:36:31;40.25;;;17.48;;
39924;SDS011;25592;49.986;11.618;2023-02-10T08:39:16;48.47;;;19.70;;
39924;SDS011;25592;49.986;11.618;2023-02-10T08:42:02;44.75;;;19.85;;
39924;SDS011;25592;49.986;11.618;2023-02-10T08:44:47;39.97;;;19.10;;
39924;SDS011;25592;49.986;11.618;2023-02-10T08:47:33;46.25;;;18.60;;
39924;SDS011;25592;49.986;11.618;2023-02-10T08:50:18;46.83;;;18.95;;
39924;SDS011;25592;49.986;11.618;2023-02-10T08:53:04;47.00;;;20.65;;
39924;SDS011;25592;49.986;11.618;2023-02-10T08:55:57;50.35;;;20.65;;
39924;SDS011;25592;49.986;11.618;2023-02-10T08:58:45;44.28;;;17.95;;
39924;SDS011;25592;49.986;11.618;2023-02-10T09:01:31;44.15;;;20.38;;
39924;SDS011;25592;49.986;11.618;2023-02-10T09:04:16;49.03;;;21.25;;
39924;SDS011;25592;49.986;11.618;2023-02-10T09:07:02;45.65;;;19.63;;
39924;SDS011;25592;49.986;11.618;2023-02-10T09:09:47;50.28;;;22.05;;
39924;SDS011;25592;49.986;11.618;2023-02-10T09:12:33;48.15;;;21.42;;
39924;SDS011;25592;49.986;11.618;2023-02-10T09:15:18;45.50;;;19.45;;
39924;SDS011;25592;49.986;11.618;2023-02-10T09:18:04;43.03;;;20.40;;
39924;SDS011;25592;49.986;11.618;2023-02-10T09:20:50;45.88;;;19.52;;
39924;SDS011;25592;49.986;11.618;2023-02-10T09:23:36;46.53;;;21.00;;
39924;SDS011;25592;49.986;11.618;2023-02-10T09:26:22;54.85;;;23.20;;
39924;SDS011;25592;49.986;11.618;2023-02-10T09:29:07;52.28;;;24.88;;
39924;SDS011;25592;49.986;11.618;2023-02-10T09:31:52;50.35;;;23.02;;
39924;SDS011;25592;49.986;11.618;2023-02-10T09:34:38;45.40;;;19.60;;
39924;SDS011;25592;49.986;11.618;2023-02-10T09:37:24;44.47;;;21.30;;
39924;SDS011;25592;49.986;11.618;2023-02-10T09:40:12;58.72;;;24.15;;
39924;SDS011;25592;49.986;11.618;2023-02-10T09:43:07;57.92;;;24.20;;
39924;SDS011;25592;49.986;11.618;2023-02-10T09:46:13;55.10;;;24.00;;
39924;SDS011;25592;49.986;11.618;2023-02-10T09:49:11;51.67;;;21.98;;
39924;SDS011;25592;49.986;11.618;2023-02-10T09:55:13;43.67;;;18.70;;
39924;SDS011;25592;49.986;11.618;2023-02-10T09:58:13;43.55;;;21.13;;
39924;SDS011;25592;49.986;11.618;2023-02-10T10:01:24;46.00;;;20.77;;
39924;SDS011;25592;49.986;11.618;2023-02-10T10:04:15;52.15;;;21.35;;
39924;SDS011;25592;49.986;11.618;2023-02-10T10:13:00;48.00;;;21.05;;
39924;SDS011;25592;49.986;11.618;2023-02-10T10:22:19;52.30;;;22.48;;
39924;SDS011;25592;49.986;11.618;2023-02-10T10:28:49;45.85;;;21.83;;
39924;SDS011;25592;49.986;11.618;2023-02-10T10:31:46;51.22;;;23.48;;
39924;SDS011;25592;49.986;11.618;2023-02-10T10:34:36;48.53;;;23.60;;
39924;SDS011;25592;49.986;11.618;2023-02-10T10:37:25;45.80;;;21.25;;
39924;SDS011;25592;49.986;11.618;2023-02-10T10:40:15;51.10;;;22.60;;
39924;SDS011;25592;49.986;11.618;2023-02-10T10:43:04;51.47;;;22.73;;
39924;SDS011;25592;49.986;11.618;2023-02-10T10:45:50;46.20;;;21.40;;
39924;SDS011;25592;49.986;11.618;2023-02-10T10:48:41;47.53;;;22.08;;
39924;SDS011;25592;49.986;11.618;2023-02-10T10:51:27;50.92;;;22.27;;
39924;SDS011;25592;49.986;11.618;2023-02-10T10:54:17;49.95;;;22.00;;
39924;SDS011;25592;49.986;11.618;2023-02-10T10:57:05;49.25;;;22.38;;
39924;SDS011;25592;49.986;11.618;2023-02-10T11:03:06;48.40;;;22.35;;
39924;SDS011;25592;49.986;11.618;2023-02-10T11:09:13;49.13;;;20.83;;
39924;SDS011;25592;49.986;11.618;2023-02-10T11:15:31;54.17;;;24.83;;
39924;SDS011;25592;49.986;11.618;2023-02-10T11:18:18;42.63;;;21.25;;
39924;SDS011;25592;49.986;11.618;2023-02-10T11:21:08;54.65;;;23.58;;
39924;SDS011;25592;49.986;11.618;2023-02-10T11:23:56;62.30;;;26.77;;
39924;SDS011;25592;49.986;11.618;2023-02-10T11:26:42;51.17;;;24.17;;
39924;SDS011;25592;49.986;11.618;2023-02-10T11:29:40;53.03;;;24.15;;
39924;SDS011;25592;49.986;11.618;2023-02-10T11:32:33;51.80;;;23.90;;
39924;SDS011;25592;49.986;11.618;2023-02-10T11:35:19;46.90;;;20.70;;
39924;SDS011;25592;49.986;11.618;2023-02-10T11:38:05;50.38;;;24.30;;
39924;SDS011;25592;49.986;11.618;2023-02-10T11:41:02;52.35;;;24.20;;
39924;SDS011;25592;49.986;11.618;2023-02-10T11:43:50;47.75;;;22.77;;
39924;SDS011;25592;49.986;11.618;2023-02-10T11:46:35;53.78;;;25.70;;
39924;SDS011;25592;49.986;11.618;2023-02-10T11:49:20;48.53;;;22.00;;
39924;SDS011;25592;49.986;11.618;2023-02-10T11:52:06;56.45;;;23.88;;
39924;SDS011;25592;49.986;11.618;2023-02-10T11:54:51;56.97;;;24.45;;
39924;SDS011;25592;49.986;11.618;2023-02-10T11:57:52;50.55;;;23.85;;
39924;SDS011;25592;49.986;11.618;2023-02-10T12:04:01;49.05;;;22.55;;
39924;SDS011;25592;49.986;11.618;2023-02-10T12:09:52;58.22;;;24.35;;
39924;SDS011;25592;49.986;11.618;2023-02-10T12:24:19;46.40;;;22.63;;
39924;SDS011;25592;49.986;11.618;2023-02-10T12:27:20;48.80;;;22.00;;
39924;SDS011;25592;49.986;11.618;2023-02-10T12:30:22;47.92;;;22.35;;
39924;SDS011;25592;49.986;11.618;2023-02-10T12:39:37;47.20;;;22.50;;
39924;SDS011;25592;49.986;11.618;2023-02-10T12:42:49;50.38;;;22.42;;
39924;SDS011;25592;49.986;11.618;2023-02-10T12:45:48;54.50;;;23.13;;
39924;SDS011;25592;49.986;11.618;2023-02-10T12:52:07;55.95;;;23.20;;
39924;SDS011;25592;49.986;11.618;2023-02-10T12:54:59;43.95;;;22.45;;
39924;SDS011;25592;49.986;11.618;2023-02-10T12:58:02;48.10;;;23.23;;
39924;SDS011;25592;49.986;11.618;2023-02-10T13:03:46;60.63;;;25.52;;
39924;SDS011;25592;49.986;11.618;2023-02-10T13:06:38;45.83;;;22.95;;
39924;SDS011;25592;49.986;11.618;2023-02-10T13:09:32;52.70;;;24.42;;
39924;SDS011;25592;49.986;11.618;2023-02-10T13:12:33;52.42;;;23.40;;
39924;SDS011;25592;49.986;11.618;2023-02-10T13:15:42;53.90;;;22.90;;
39924;SDS011;25592;49.986;11.618;2023-02-10T13:18:32;52.42;;;22.13;;
39924;SDS011;25592;49.986;11.618;2023-02-10T13:21:31;52.47;;;25.92;;
39924;SDS011;25592;49.986;11.618;2023-02-10T13:24:31;54.70;;;23.80;;
39924;SDS011;25592;49.986;11.618;2023-02-10T13:30:55;54.88;;;24.63;;
39924;SDS011;25592;49.986;11.618;2023-02-10T13:34:04;51.97;;;25.17;;
39924;SDS011;25592;49.986;11.618;2023-02-10T13:40:24;45.28;;;22.40;;
39924;SDS011;25592;49.986;11.618;2023-02-10T13:43:26;59.88;;;25.40;;
39924;SDS011;25592;49.986;11.618;2023-02-10T13:46:20;66.18;;;26.08;;
39924;SDS011;25592;49.986;11.618;2023-02-10T13:49:11;57.58;;;25.63;;
39924;SDS011;25592;49.986;11.618;2023-02-10T13:52:06;55.83;;;23.58;;
39924;SDS011;25592;49.986;11.618;2023-02-10T14:00:49;57.22;;;24.38;;
39924;SDS011;25592;49.986;11.618;2023-02-10T14:03:36;51.60;;;24.63;;
39924;SDS011;25592;49.986;11.618;2023-02-10T14:06:31;51.28;;;22.67;;
39924;SDS011;25592;49.986;11.618;2023-02-10T14:12:23;52.90;;;23.63;;
39924;SDS011;25592;49.986;11.618;2023-02-10T14:15:30;55.60;;;25.05;;
39924;SDS011;25592;49.986;11.618;2023-02-10T14:18:22;56.65;;;25.58;;
39924;SDS011;25592;49.986;11.618;2023-02-10T14:21:13;57.85;;;24.60;;
39924;SDS011;25592;49.986;11.618;2023-02-10T14:24:01;52.55;;;24.83;;
39924;SDS011;25592;49.986;11.618;2023-02-10T14:26:46;52.42;;;24.20;;
39924;SDS011;25592;49.986;11.618;2023-02-10T14:29:34;50.47;;;25.63;;
39924;SDS011;25592;49.986;11.618;2023-02-10T14:32:20;50.22;;;24.02;;
39924;SDS011;25592;49.986;11.618;2023-02-10T14:35:17;53.17;;;26.65;;
39924;SDS011;25592;49.986;11.618;2023-02-10T14:38:17;56.90;;;24.70;;
39924;SDS011;25592;49.986;11.618;2023-02-10T14:41:06;52.22;;;24.45;;
39924;SDS011;25592;49.986;11.618;2023-02-10T14:44:04;52.45;;;23.92;;
39924;SDS011;25592;49.986;11.618;2023-02-10T14:46:49;58.53;;;25.67;;
39924;SDS011;25592;49.986;11.618;2023-02-10T14:49:35;50.20;;;24.10;;
39924;SDS011;25592;49.986;11.618;2023-02-10T14:52:26;53.15;;;23.85;;
39924;SDS011;25592;49.986;11.618;2023-02-10T14:58:15;48.38;;;23.80;;
39924;SDS011;25592;49.986;11.618;2023-02-10T15:04:17;48.72;;;23.30;;
39924;SDS011;25592;49.986;11.618;2023-02-10T15:07:03;52.63;;;24.73;;
39924;SDS011;25592;49.986;11.618;2023-02-10T15:09:49;50.65;;;24.65;;
39924;SDS011;25592;49.986;11.618;2023-02-10T15:12:35;53.92;;;25.75;;
39924;SDS011;25592;49.986;11.618;2023-02-10T15:15:35;55.78;;;26.10;;
39924;SDS011;25592;49.986;11.618;2023-02-10T15:18:24;57.33;;;24.20;;
39924;SDS011;25592;49.986;11.618;2023-02-10T15:24:30;47.50;;;23.77;;
39924;SDS011;25592;49.986;11.618;2023-02-10T15:27:18;55.50;;;24.00;;
39924;SDS011;25592;49.986;11.618;2023-02-10T15:30:08;51.90;;;22.98;;
39924;SDS011;25592;49.986;11.618;2023-02-10T15:32:57;58.35;;;24.50;;
39924;SDS011;25592;49.986;11.618;2023-02-10T15:35:50;50.58;;;23.20;;
39924;SDS011;25592;49.986;11.618;2023-02-10T15:44:41;52.38;;;24.83;;
39924;SDS011;25592;49.986;11.618;2023-02-10T15:47:41;46.40;;;23.85;;
39924;SDS011;25592;49.986;11.618;2023-02-10T15:50:32;47.85;;;23.75;;
39924;SDS011;25592;49.986;11.618;2023-02-10T15:53:20;52.08;;;24.40;;
39924;SDS011;25592;49.986;11.618;2023-02-10T15:56:06;57.75;;;26.42;;
39924;SDS011;25592;49.986;11.618;2023-02-10T15:58:51;54.22;;;23.92;;
39924;SDS011;25592;49.986;11.618;2023-02-10T16:01:36;53.40;;;23.30;;
39924;SDS011;25592;49.986;11.618;2023-02-10T16:04:22;52.78;;;24.60;;
39924;SDS011;25592;49.986;11.618;2023-02-10T16:07:09;63.92;;;28.30;;
39924;SDS011;25592;49.986;11.618;2023-02-10T16:09:59;60.58;;;25.02;;
39924;SDS011;25592;49.986;11.618;2023-02-10T16:12:44;71.47;;;29.35;;
39924;SDS011;25592;49.986;11.618;2023-02-10T16:15:29;70.35;;;30.80;;
39924;SDS011;25592;49.986;11.618;2023-02-10T16:18:16;71.55;;;28.10;;
39924;SDS011;25592;49.986;11.618;2023-02-10T16:21:04;74.30;;;30.73;;
39924;SDS011;25592;49.986;11.618;2023-02-10T16:23:51;58.53;;;26.77;;
39924;SDS011;25592;49.986;11.618;2023-02-10T16:26:36;62.50;;;26.40;;
39924;SDS011;25592;49.986;11.618;2023-02-10T16:29:22;65.05;;;28.15;;
39924;SDS011;25592;49.986;11.618;2023-02-10T16:32:10;63.78;;;30.35;;
39924;SDS011;25592;49.986;11.618;2023-02-10T16:34:56;69.40;;;30.40;;
39924;SDS011;25592;49.986;11.618;2023-02-10T16:37:41;65.18;;;27.85;;
39924;SDS011;25592;49.986;11.618;2023-02-10T16:40:28;65.18;;;29.23;;
39924;SDS011;25592;49.986;11.618;2023-02-10T16:43:16;72.78;;;32.60;;
39924;SDS011;25592;49.986;11.618;2023-02-10T16:46:01;80.45;;;32.28;;
39924;SDS011;25592;49.986;11.618;2023-02-10T16:48:47;75.85;;;31.90;;
39924;SDS011;25592;49.986;11.618;2023-02-10T16:51:33;69.35;;;32.30;;
39924;SDS011;25592;49.986;11.618;2023-02-10T16:54:18;71.30;;;31.05;;
39924;SDS011;25592;49.986;11.618;2023-02-10T16:57:04;78.57;;;30.95;;
39924;SDS011;25592;49.986;11.618;2023-02-10T16:59:50;74.50;;;30.52;;
39924;SDS011;25592;49.986;11.618;2023-02-10T17:02:37;71.97;;;32.63;;
39924;SDS011;25592;49.986;11.618;2023-02-10T17:05:23;76.85;;;30.70;;
39924;SDS011;25592;49.986;11.618;2023-02-10T17:08:09;71.78;;;32.17;;
39924;SDS011;25592;49.986;11.618;2023-02-10T17:10:55;73.15;;;29.98;;
39924;SDS011;25592;49.986;11.618;2023-02-10T17:13:41;73.57;;;30.25;;
39924;SDS011;25592;49.986;11.618;2023-02-10T17:16:27;71.75;;;31.63;;
39924;SDS011;25592;49.986;11.618;2023-02-10T17:19:16;71.65;;;29.83;;
39924;SDS011;25592;49.986;11.618;2023-02-10T17:22:03;61.25;;;28.70;;
39924;SDS011;25592;49.986;11.618;2023-02-10T17:24:49;71.45;;;30.95;;
39924;SDS011;25592;49.986;11.618;2023-02-10T17:27:35;63.45;;;29.40;;
39924;SDS011;25592;49.986;11.618;2023-02-10T17:30:21;71.35;;;29.70;;
39924;SDS011;25592;49.986;11.618;2023-02-10T17:33:26;71.43;;;31.58;;
39924;SDS011;25592;49.986;11.618;2023-02-10T17:36:12;69.65;;;29.85;;
39924;SDS011;25592;49.986;11.618;2023-02-10T17:38:57;68.57;;;29.00;;
39924;SDS011;25592;49.986;11.618;2023-02-10T17:42:12;63.63;;;29.38;;
39924;SDS011;25592;49.986;11.618;2023-02-10T17:44:57;47.25;;;21.48;;
39924;SDS011;25592;49.986;11.618;2023-02-10T17:47:43;66.55;;;26.75;;
39924;SDS011;25592;49.986;11.618;2023-02-10T17:50:31;57.83;;;26.20;;
39924;SDS011;25592;49.986;11.618;2023-02-10T17:53:17;64.28;;;27.02;;
39924;SDS011;25592;49.986;11.618;2023-02-10T17:56:03;59.38;;;27.13;;
39924;SDS011;25592;49.986;11.618;2023-02-10T17:58:48;61.47;;;26.70;;
39924;SDS011;25592;49.986;11.618;2023-02-10T18:01:34;65.43;;;29.48;;
39924;SDS011;25592;49.986;11.618;2023-02-10T18:04:19;72.53;;;31.17;;